Time;durP1;ratioP1;P1;durP2;ratioP2;P2;SDS_P1;SDS_P2;PMS_P1;PMS_P2;Temp;Humidity;BMP_temperature;BMP_pressure;BME280_temperature;BME280_humidity;BME280_pressure;Samples;Min_cycle;Max_cycle;Signal;HPM_P1;HPM_P2
2022/03/18 00:00:33;;;;;;;175.02;80.45;;;4.10;99.90;;;;;;5097623;28;20496;-59
2022/03/18 00:02:59;;;;;;;175.63;81.10;;;3.90;99.90;;;;;;5091964;28;20017;-59
2022/03/18 00:05:25;;;;;;;188.63;83.32;;;3.70;99.90;;;;;;5077632;28;20040;-59
2022/03/18 00:07:52;;;;;;;189.70;84.13;;;3.60;99.90;;;;;;5077314;28;20031;-59
2022/03/18 00:10:18;;;;;;;206.07;87.70;;;3.60;99.90;;;;;;5077120;28;20037;-59
2022/03/18 00:12:46;;;;;;;212.90;85.18;;;3.60;99.90;;;;;;5077137;28;20462;-59
2022/03/18 00:15:13;;;;;;;212.80;83.13;;;3.50;99.90;;;;;;5077488;28;20025;-59
2022/03/18 00:17:40;;;;;;;190.63;76.47;;;3.50;99.90;;;;;;5095840;28;20469;-59
2022/03/18 00:20:10;;;;;;;183.63;77.00;;;3.50;99.90;;;;;;5097523;28;20067;-59
2022/03/18 00:22:36;;;;;;;201.95;82.03;;;3.40;99.90;;;;;;5096856;28;20034;-59
2022/03/18 00:25:04;;;;;;;178.25;76.78;;;3.30;99.90;;;;;;5096657;28;20040;-59
2022/03/18 00:27:30;;;;;;;174.48;79.13;;;3.20;99.90;;;;;;5097198;28;20529;-59
2022/03/18 00:29:56;;;;;;;207.57;87.13;;;3.20;99.90;;;;;;5097232;28;20043;-59
2022/03/18 00:32:23;;;;;;;198.60;85.05;;;3.20;99.90;;;;;;5096541;28;20059;-59
2022/03/18 00:34:50;;;;;;;190.82;82.07;;;3.20;99.90;;;;;;5097166;28;20032;-59
2022/03/18 00:37:16;;;;;;;150.10;68.93;;;3.20;99.90;;;;;;5097173;28;20194;-59
2022/03/18 00:39:43;;;;;;;151.15;71.30;;;3.10;99.90;;;;;;5096926;28;20050;-59
2022/03/18 00:42:11;;;;;;;180.82;77.20;;;3.00;99.90;;;;;;5097059;28;20031;-59
2022/03/18 00:44:37;;;;;;;210.35;85.38;;;3.00;99.90;;;;;;5097103;28;20154;-59
2022/03/18 00:47:03;;;;;;;598.63;186.73;;;2.90;99.90;;;;;;5096676;28;20028;-59
2022/03/18 00:52:14;;;;;;;248.65;92.65;;;2.90;99.90;;;;;;5096909;28;20456;-59
2022/03/18 00:54:43;;;;;;;193.48;82.05;;;2.80;99.90;;;;;;5096882;28;20109;-59
2022/03/18 00:57:10;;;;;;;212.27;83.90;;;2.70;99.90;;;;;;5096484;28;20020;-59
2022/03/18 00:59:37;;;;;;;182.10;79.13;;;2.80;99.90;;;;;;5096854;28;20032;-59
2022/03/18 01:02:03;;;;;;;196.80;84.97;;;2.70;99.90;;;;;;5096311;28;20036;-59
2022/03/18 01:04:29;;;;;;;224.45;89.80;;;2.80;99.90;;;;;;5078693;28;20036;-59
2022/03/18 01:06:56;;;;;;;212.30;85.60;;;2.70;99.90;;;;;;5076349;28;20432;-59
2022/03/18 01:09:23;;;;;;;199.43;86.60;;;2.70;99.90;;;;;;5076204;28;20143;-59
2022/03/18 01:11:51;;;;;;;201.40;84.38;;;2.60;99.90;;;;;;5076103;28;20031;-58
2022/03/18 01:14:18;;;;;;;209.13;90.50;;;2.70;99.90;;;;;;5076102;28;20047;-59
2022/03/18 01:16:44;;;;;;;206.85;86.80;;;2.60;99.90;;;;;;5075982;28;20059;-59
2022/03/18 01:19:10;;;;;;;186.10;82.15;;;2.60;99.90;;;;;;5076056;28;20028;-59
2022/03/18 01:21:36;;;;;;;174.75;79.68;;;2.60;99.90;;;;;;5075927;28;20024;-59
2022/03/18 01:24:03;;;;;;;177.40;81.72;;;2.60;99.90;;;;;;5075930;28;20039;-59
2022/03/18 01:26:29;;;;;;;200.50;88.60;;;2.50;99.90;;;;;;5076094;28;20039;-59
2022/03/18 01:28:56;;;;;;;235.73;93.72;;;2.50;99.90;;;;;;5075898;28;20025;-59
2022/03/18 01:31:23;;;;;;;184.98;81.28;;;2.50;99.90;;;;;;5075960;28;20032;-59
2022/03/18 01:33:49;;;;;;;176.90;81.32;;;2.40;99.90;;;;;;5075396;28;20048;-59
2022/03/18 01:36:15;;;;;;;197.55;90.43;;;2.30;99.90;;;;;;5075495;28;20481;-59
2022/03/18 01:38:41;;;;;;;181.07;84.07;;;2.30;99.90;;;;;;5075667;28;20025;-59
2022/03/18 01:41:08;;;;;;;194.95;86.78;;;2.30;99.90;;;;;;5075483;28;20047;-59
2022/03/18 01:43:44;;;;;;;233.25;98.43;;;2.30;99.90;;;;;;5075413;28;20021;-58
2022/03/18 01:46:12;;;;;;;202.68;90.47;;;2.40;99.90;;;;;;5095580;28;20130;-59
2022/03/18 01:48:38;;;;;;;218.50;90.25;;;2.30;99.90;;;;;;5095456;28;20031;-59
2022/03/18 01:51:05;;;;;;;194.35;89.25;;;2.20;99.90;;;;;;5095787;28;20028;-59
2022/03/18 01:53:36;;;;;;;201.95;92.30;;;2.20;99.90;;;;;;5095853;28;20032;-58
2022/03/18 01:56:02;;;;;;;176.73;86.32;;;2.30;99.90;;;;;;5095729;28;20040;-59
2022/03/18 01:58:29;;;;;;;189.50;87.03;;;2.50;99.90;;;;;;5095195;28;20164;-59
2022/03/18 02:00:54;;;;;;;176.48;83.82;;;2.50;99.90;;;;;;5095554;28;20035;-59
2022/03/18 02:03:21;;;;;;;177.50;81.93;;;2.40;99.90;;;;;;5086797;28;20028;-58
2022/03/18 02:05:48;;;;;;;176.30;81.50;;;2.40;99.90;;;;;;5075396;28;20024;-58
2022/03/18 02:08:17;;;;;;;174.00;81.43;;;2.30;99.90;;;;;;5074882;28;20020;-59
2022/03/18 02:10:43;;;;;;;182.23;83.68;;;2.30;99.90;;;;;;5075081;28;20496;-59
2022/03/18 02:13:10;;;;;;;182.75;84.63;;;2.30;99.90;;;;;;5074980;28;20067;-58
2022/03/18 02:15:36;;;;;;;174.55;82.72;;;2.20;99.90;;;;;;5074820;28;20043;-59
2022/03/18 02:18:02;;;;;;;161.93;77.55;;;2.20;99.90;;;;;;5091244;28;20057;-59
2022/03/18 02:20:29;;;;;;;171.18;82.10;;;2.10;99.90;;;;;;5094809;28;20034;-59
2022/03/18 02:22:55;;;;;;;170.85;79.70;;;2.00;99.90;;;;;;5095034;28;20020;-58
2022/03/18 02:25:21;;;;;;;173.20;81.53;;;2.10;99.90;;;;;;5094967;28;20038;-58
2022/03/18 02:27:57;;;;;;;205.10;89.55;;;2.00;99.90;;;;;;5095278;28;20056;-59
2022/03/18 02:30:23;;;;;;;273.42;107.13;;;2.00;99.90;;;;;;5094806;28;20031;-58
2022/03/18 02:32:49;;;;;;;333.05;128.73;;;2.00;99.90;;;;;;5094482;28;20052;-59
2022/03/18 02:35:16;;;;;;;323.65;125.47;;;2.00;99.90;;;;;;5094773;28;20028;-58
2022/03/18 02:37:43;;;;;;;270.35;107.35;;;2.10;99.90;;;;;;5094860;28;20072;-59
2022/03/18 02:40:09;;;;;;;316.85;123.88;;;2.10;99.90;;;;;;5094885;28;20028;-59
2022/03/18 02:42:35;;;;;;;356.02;138.27;;;2.10;99.90;;;;;;5094665;28;20414;-58
2022/03/18 02:45:02;;;;;;;327.27;130.63;;;2.10;99.90;;;;;;5094335;28;20043;-58
2022/03/18 02:47:28;;;;;;;279.90;113.40;;;2.00;99.90;;;;;;5094207;28;20039;-59
2022/03/18 02:49:54;;;;;;;255.10;108.00;;;2.00;99.90;;;;;;5094594;28;20489;-58
2022/03/18 02:52:20;;;;;;;247.48;104.57;;;2.10;99.90;;;;;;5094588;28;20036;-59
2022/03/18 02:54:46;;;;;;;239.32;102.20;;;2.10;99.90;;;;;;5094900;28;20024;-58
2022/03/18 02:57:12;;;;;;;212.10;94.88;;;2.10;99.90;;;;;;5094502;28;20028;-58
2022/03/18 02:59:38;;;;;;;235.55;103.22;;;2.00;99.90;;;;;;5094583;28;20482;-59
2022/03/18 03:02:05;;;;;;;224.60;96.68;;;2.00;99.90;;;;;;5094497;28;20024;-59
2022/03/18 03:04:31;;;;;;;195.00;88.65;;;1.90;99.90;;;;;;5075936;28;20062;-59
2022/03/18 03:09:41;;;;;;;186.93;82.68;;;1.80;99.90;;;;;;5074045;28;20025;-59
2022/03/18 03:12:08;;;;;;;161.32;72.88;;;1.80;99.90;;;;;;5073978;28;20391;-59
2022/03/18 03:14:36;;;;;;;160.38;72.95;;;1.80;99.90;;;;;;5074113;28;20112;-58
2022/03/18 03:17:03;;;;;;;161.18;73.40;;;1.80;99.90;;;;;;5073954;28;20498;-58
2022/03/18 03:19:30;;;;;;;154.70;69.28;;;1.70;99.90;;;;;;5073979;28;20025;-58
2022/03/18 03:21:56;;;;;;;174.68;74.30;;;1.60;99.90;;;;;;5074247;28;20517;-59
2022/03/18 03:24:22;;;;;;;145.50;68.47;;;1.50;99.90;;;;;;5074032;28;20059;-59
2022/03/18 03:26:47;;;;;;;144.77;66.80;;;1.50;99.90;;;;;;5074014;28;20029;-58
2022/03/18 03:29:13;;;;;;;153.50;70.03;;;1.40;99.90;;;;;;5074107;28;20024;-58
2022/03/18 03:31:39;;;;;;;152.20;70.95;;;1.30;99.90;;;;;;5073903;28;20050;-58
2022/03/18 03:34:05;;;;;;;165.85;76.35;;;1.20;99.90;;;;;;5073629;28;20044;-58
2022/03/18 03:36:31;;;;;;;175.63;80.75;;;1.10;99.90;;;;;;5073889;28;20039;-58
2022/03/18 03:38:57;;;;;;;171.57;77.80;;;1.10;99.90;;;;;;5074010;28;20450;-58
2022/03/18 03:41:23;;;;;;;161.82;76.72;;;1.10;99.90;;;;;;5073851;28;20025;-58
2022/03/18 03:43:50;;;;;;;153.30;71.40;;;1.10;99.90;;;;;;5073965;28;20114;-58
2022/03/18 03:46:16;;;;;;;148.90;70.03;;;1.00;99.90;;;;;;5073762;28;20024;-58
2022/03/18 03:48:42;;;;;;;145.95;67.43;;;0.90;99.90;;;;;;5073798;28;20032;-59
2022/03/18 03:51:08;;;;;;;145.55;68.20;;;0.80;99.90;;;;;;5074102;28;20032;-58
2022/03/18 03:53:34;;;;;;;143.43;68.68;;;0.90;99.90;;;;;;5073816;28;20047;-58
2022/03/18 03:56:00;;;;;;;150.65;69.80;;;0.90;99.90;;;;;;5073634;28;20033;-58
2022/03/18 03:58:25;;;;;;;145.48;69.50;;;0.90;99.90;;;;;;5075789;28;20388;-58
2022/03/18 04:00:51;;;;;;;147.80;68.13;;;0.80;99.90;;;;;;5077517;28;20017;-58
2022/03/18 04:03:17;;;;;;;143.43;68.55;;;0.70;99.90;;;;;;5069152;28;20100;-58
2022/03/18 04:05:43;;;;;;;155.15;71.57;;;0.70;99.90;;;;;;5057276;28;20110;-59
2022/03/18 04:08:09;;;;;;;154.30;73.15;;;0.70;99.90;;;;;;5057626;28;20043;-58
2022/03/18 04:10:42;;;;;;;161.90;75.40;;;0.70;99.90;;;;;;5057514;28;20028;-58
2022/03/18 04:13:08;;;;;;;177.73;81.28;;;0.70;99.90;;;;;;5057384;28;20040;-58
2022/03/18 04:15:34;;;;;;;167.77;81.40;;;0.70;99.90;;;;;;5058682;28;20398;-58
2022/03/18 04:18:00;;;;;;;174.38;82.28;;;0.70;99.90;;;;;;5077203;28;20036;-58
2022/03/18 04:20:27;;;;;;;172.90;78.32;;;0.70;99.90;;;;;;5077038;28;20485;-58
2022/03/18 04:22:53;;;;;;;176.43;78.80;;;0.70;99.90;;;;;;5077063;28;20028;-58
2022/03/18 04:25:22;;;;;;;166.40;76.65;;;0.70;99.90;;;;;;5077390;28;20371;-58
2022/03/18 04:27:49;;;;;;;162.32;74.13;;;0.70;99.90;;;;;;5077115;28;20033;-58
2022/03/18 04:30:15;;;;;;;165.32;74.38;;;0.70;99.90;;;;;;5076976;28;20033;-59
2022/03/18 04:32:42;;;;;;;159.90;75.22;;;0.70;99.90;;;;;;5076665;28;20098;-58
2022/03/18 04:35:09;;;;;;;170.35;79.38;;;0.70;99.90;;;;;;5076721;28;20075;-58
2022/03/18 04:37:37;;;;;;;153.82;72.13;;;0.60;99.90;;;;;;5076823;28;20027;-58
2022/03/18 04:40:05;;;;;;;159.20;76.10;;;0.60;99.90;;;;;;5076726;28;20043;-58
2022/03/18 04:42:31;;;;;;;152.65;71.85;;;0.50;99.90;;;;;;5076600;28;20036;-58
2022/03/18 04:44:56;;;;;;;196.93;90.82;;;0.40;99.90;;;;;;5076670;28;20095;-58
2022/03/18 04:47:23;;;;;;;177.95;81.80;;;0.50;99.90;;;;;;5076659;28;20043;-59
2022/03/18 04:49:49;;;;;;;184.30;82.65;;;0.40;99.90;;;;;;5076464;28;20055;-58
2022/03/18 04:52:15;;;;;;;166.38;78.05;;;0.40;99.90;;;;;;5076646;28;20037;-58
2022/03/18 04:54:40;;;;;;;176.00;81.00;;;0.40;99.90;;;;;;5076578;28;20024;-58
2022/03/18 04:57:15;;;;;;;167.73;76.38;;;0.30;99.90;;;;;;5076251;28;20378;-59
2022/03/18 04:59:42;;;;;;;146.95;70.40;;;0.30;99.90;;;;;;5076319;28;20470;-58
2022/03/18 05:02:12;;;;;;;146.80;72.90;;;0.30;99.90;;;;;;5076463;28;20021;-59
2022/03/18 05:04:38;;;;;;;162.73;73.75;;;0.30;99.90;;;;;;5057100;28;20048;-58
2022/03/18 05:07:05;;;;;;;214.43;96.95;;;0.30;99.90;;;;;;5056080;28;20516;-58
2022/03/18 05:09:32;;;;;;;193.50;89.35;;;0.30;99.90;;;;;;5055354;28;20037;-59
2022/03/18 05:11:57;;;;;;;180.15;84.55;;;0.40;99.90;;;;;;5056125;28;20028;-58
2022/03/18 05:14:23;;;;;;;171.68;80.00;;;0.30;99.90;;;;;;5056046;28;20033;-59
2022/03/18 05:16:50;;;;;;;163.55;74.38;;;0.40;99.90;;;;;;5067736;28;20028;-58
2022/03/18 05:19:16;;;;;;;160.02;75.10;;;0.60;99.90;;;;;;5076126;28;20488;-59
2022/03/18 05:21:42;;;;;;;167.95;76.03;;;0.60;99.90;;;;;;5075823;28;20025;-59
2022/03/18 05:24:08;;;;;;;173.52;78.78;;;0.70;99.90;;;;;;5075833;28;20158;-58
2022/03/18 05:26:34;;;;;;;167.93;74.65;;;1.00;99.90;;;;;;5075985;28;20036;-58
2022/03/18 05:29:01;;;;;;;158.07;70.03;;;1.20;99.90;;;;;;5075729;28;20022;-58
2022/03/18 05:31:27;;;;;;;156.65;72.15;;;1.40;99.90;;;;;;5075614;28;20033;-59
2022/03/18 05:33:54;;;;;;;163.13;74.47;;;1.60;99.90;;;;;;5075660;28;20112;-58
2022/03/18 05:36:21;;;;;;;170.32;74.00;;;1.60;99.90;;;;;;5075691;28;20039;-58
2022/03/18 05:38:47;;;;;;;168.93;78.20;;;1.70;99.90;;;;;;5075673;28;20094;-59
2022/03/18 05:41:13;;;;;;;167.05;74.65;;;1.80;99.90;;;;;;5075407;28;20016;-58
2022/03/18 05:43:40;;;;;;;156.23;72.55;;;1.90;99.90;;;;;;5075538;28;20020;-58
2022/03/18 05:46:07;;;;;;;203.95;88.05;;;2.00;99.90;;;;;;5075359;28;20031;-58
2022/03/18 05:48:33;;;;;;;196.57;90.47;;;2.10;99.90;;;;;;5075261;28;20113;-58
2022/03/18 05:51:02;;;;;;;204.63;92.45;;;2.10;99.90;;;;;;5075303;28;20020;-58
2022/03/18 05:53:28;;;;;;;207.48;94.50;;;2.30;99.90;;;;;;5075368;28;20032;-58
2022/03/18 05:58:41;;;;;;;206.23;91.13;;;2.50;99.90;;;;;;5088552;28;20408;-58
2022/03/18 06:01:07;;;;;;;208.02;89.95;;;2.70;99.90;;;;;;5095647;28;20035;-58
2022/03/18 06:03:33;;;;;;;224.10;96.03;;;2.90;99.90;;;;;;5084806;28;20029;-58
2022/03/18 06:05:59;;;;;;;216.55;95.45;;;2.80;99.90;;;;;;5075242;28;20029;-58
2022/03/18 06:13:54;;;;;;;218.25;93.30;;;3.20;99.90;;;;;;5074819;28;20029;-59
2022/03/18 06:16:20;;;;;;;224.55;96.72;;;3.40;99.90;;;;;;5077063;28;20028;-59
2022/03/18 06:18:46;;;;;;;218.10;96.60;;;3.50;99.90;;;;;;5070549;28;20027;-58
2022/03/18 06:21:15;;;;;;;223.07;93.47;;;3.60;99.90;;;;;;5061312;28;20029;-58
2022/03/18 06:23:41;;;;;;;211.32;91.00;;;3.60;99.90;;;;;;5062386;28;20035;-58
2022/03/18 06:26:07;;;;;;;196.73;91.95;;;3.80;99.90;;;;;;5066169;28;20067;-58
2022/03/18 06:28:33;;;;;;;204.98;93.22;;;3.90;99.90;;;;;;5066183;28;20044;-58
2022/03/18 06:30:59;;;;;;;201.40;91.97;;;4.10;99.90;;;;;;5063205;28;20040;-58
2022/03/18 06:33:27;;;;;;;211.70;97.65;;;4.40;99.90;;;;;;5058988;28;20107;-58
2022/03/18 06:35:53;;;;;;;203.75;95.38;;;4.60;99.90;;;;;;5047188;28;20045;-58
2022/03/18 06:38:19;;;;;;;215.05;99.93;;;4.70;99.90;;;;;;5051002;28;20025;-58
2022/03/18 06:40:46;;;;;;;222.35;100.28;;;4.90;99.90;;;;;;5054617;28;20033;-58
2022/03/18 06:43:12;;;;;;;214.75;94.40;;;5.10;99.90;;;;;;5054950;28;20029;-54
2022/03/18 06:45:38;;;;;;;209.35;99.20;;;5.40;99.90;;;;;;5047878;28;20028;-54
2022/03/18 06:48:04;;;;;;;179.10;84.07;;;5.50;99.90;;;;;;5044597;28;20033;-54
2022/03/18 06:50:34;;;;;;;190.15;86.07;;;5.90;99.90;;;;;;5047839;28;20039;-54
2022/03/18 06:53:03;;;;;;;151.38;72.03;;;5.80;99.90;;;;;;5035451;28;20033;-54
2022/03/18 06:55:29;;;;;;;167.57;75.43;;;5.80;99.90;;;;;;5051673;28;20061;-55
2022/03/18 06:57:55;;;;;;;148.82;70.75;;;5.90;99.90;;;;;;5044009;28;20061;-55
2022/03/18 07:00:21;;;;;;;183.07;78.72;;;6.10;99.90;;;;;;5046290;28;20025;-55
2022/03/18 07:02:47;;;;;;;142.15;70.15;;;6.30;99.90;;;;;;5046975;28;20036;-55
2022/03/18 07:05:13;;;;;;;134.85;65.50;;;6.30;99.90;;;;;;5047568;28;20044;-55
2022/03/18 07:07:42;;;;;;;163.90;75.78;;;6.50;99.90;;;;;;5042328;28;20115;-54
2022/03/18 07:10:09;;;;;;;155.85;72.72;;;6.60;99.90;;;;;;5035533;28;20088;-53
2022/03/18 07:12:35;;;;;;;171.50;77.10;;;6.60;99.90;;;;;;5046830;28;20032;-55
2022/03/18 07:15:00;;;;;;;159.35;77.30;;;6.50;99.90;;;;;;5049933;28;20379;-55
2022/03/18 07:20:14;;;;;;;152.75;74.38;;;6.40;99.90;;;;;;5036055;28;20029;-55
2022/03/18 07:22:40;;;;;;;139.38;68.65;;;6.60;99.90;;;;;;5036706;28;20470;-55
2022/03/18 07:25:07;;;;;;;151.80;72.80;;;6.70;99.90;;;;;;5033821;28;20379;-55
2022/03/18 07:27:33;;;;;;;148.70;72.28;;;6.60;99.90;;;;;;5033768;28;20135;-55
2022/03/18 07:29:59;;;;;;;166.40;80.95;;;6.90;99.90;;;;;;5033850;28;20022;-55
2022/03/18 07:32:25;;;;;;;155.15;77.20;;;6.80;99.90;;;;;;5034707;28;20041;-55
2022/03/18 07:34:51;;;;;;;170.48;83.95;;;6.90;99.90;;;;;;5060424;28;20035;-55
2022/03/18 07:37:17;;;;;;;163.52;80.70;;;7.10;99.90;;;;;;5073563;28;20031;-55
2022/03/18 07:39:43;;;;;;;165.10;79.90;;;7.20;99.90;;;;;;5077016;28;20389;-55
2022/03/18 07:42:08;;;;;;;168.73;77.22;;;7.40;99.90;;;;;;5098617;28;20067;-55
2022/03/18 07:44:36;;;;;;;158.43;71.88;;;7.40;99.90;;;;;;5082469;28;20033;-55
2022/03/18 07:47:03;;;;;;;139.65;67.95;;;7.70;99.90;;;;;;5068411;28;20056;-54
2022/03/18 07:49:29;;;;;;;143.77;68.82;;;8.00;99.90;;;;;;5077804;28;20069;-54
2022/03/18 07:51:55;;;;;;;140.57;69.50;;;8.20;99.90;;;;;;5075716;28;20017;-54
2022/03/18 07:54:21;;;;;;;132.02;66.35;;;8.30;99.90;;;;;;5076506;28;20025;-54
2022/03/18 07:56:47;;;;;;;158.30;75.47;;;8.70;99.90;;;;;;5076014;28;20035;-54
2022/03/18 07:59:13;;;;;;;155.43;72.00;;;9.20;99.90;;;;;;5079668;28;20032;-54
2022/03/18 08:01:40;;;;;;;148.95;68.57;;;9.30;99.90;;;;;;5063318;28;20032;-54
2022/03/18 08:04:08;;;;;;;135.75;63.50;;;9.50;99.90;;;;;;5070027;28;20021;-56
2022/03/18 08:06:34;;;;;;;116.80;60.50;;;9.50;99.90;;;;;;5078986;28;20490;-54
2022/03/18 08:09:00;;;;;;;128.95;62.67;;;9.60;99.90;;;;;;5065867;28;20108;-54
2022/03/18 08:11:26;;;;;;;116.35;59.67;;;9.90;99.90;;;;;;5069589;28;20107;-54
2022/03/18 08:13:53;;;;;;;124.05;61.45;;;10.10;99.90;;;;;;5077599;28;20425;-54
2022/03/18 08:16:22;;;;;;;115.95;56.60;;;10.50;99.90;;;;;;5074423;28;20079;-55
2022/03/18 08:18:48;;;;;;;111.85;56.05;;;10.60;99.90;;;;;;5059376;28;20035;-57
2022/03/18 08:21:15;;;;;;;117.90;54.80;;;11.10;99.90;;;;;;5059481;28;20104;-54
2022/03/18 08:23:44;;;;;;;104.95;53.25;;;11.00;99.90;;;;;;5077196;28;20033;-55
2022/03/18 08:26:10;;;;;;;88.25;46.78;;;11.30;99.90;;;;;;5077265;28;20476;-55
2022/03/18 08:28:36;;;;;;;103.75;44.95;;;11.80;99.90;;;;;;5076894;28;20036;-55
2022/03/18 08:31:05;;;;;;;76.43;37.10;;;12.40;98.40;;;;;;5076069;28;20500;-55
2022/03/18 08:33:32;;;;;;;81.97;42.72;;;12.90;95.70;;;;;;5076766;28;20049;-55
2022/03/18 08:35:58;;;;;;;80.57;39.53;;;13.10;95.60;;;;;;5076684;28;20024;-55
2022/03/18 08:38:24;;;;;;;46.38;23.27;;;13.30;93.80;;;;;;5076341;28;20134;-55
2022/03/18 08:40:50;;;;;;;48.13;25.58;;;13.50;92.10;;;;;;5077362;28;20029;-55
2022/03/18 08:43:16;;;;;;;45.22;18.67;;;13.50;91.70;;;;;;5046556;28;20025;-55
2022/03/18 08:45:42;;;;;;;29.08;15.73;;;13.50;91.30;;;;;;5074900;28;20024;-55
2022/03/18 08:48:08;;;;;;;35.78;16.65;;;13.90;88.10;;;;;;5075418;28;20503;-54
2022/03/18 08:50:35;;;;;;;31.55;15.32;;;13.90;88.80;;;;;;5076358;28;20036;-55
2022/03/18 08:53:04;;;;;;;31.95;15.88;;;14.00;81.60;;;;;;5077198;28;20020;-55
2022/03/18 08:55:31;;;;;;;31.27;15.32;;;14.30;86.90;;;;;;5076238;28;20157;-55
2022/03/18 08:57:57;;;;;;;30.05;15.80;;;14.40;85.50;;;;;;5076014;28;20017;-55
2022/03/18 09:00:23;;;;;;;31.30;15.15;;;14.70;74.50;;;;;;5076522;28;20124;-54
2022/03/18 09:02:49;;;;;;;30.75;15.48;;;14.60;72.50;;;;;;5075696;28;20086;-54
2022/03/18 09:05:16;;;;;;;21.02;13.63;;;14.40;82.50;;;;;;5075887;28;20024;-54
2022/03/18 09:07:42;;;;;;;46.85;15.77;;;14.00;82.80;;;;;;5076157;28;20450;-54
2022/03/18 09:10:10;;;;;;;26.33;14.13;;;14.00;73.10;;;;;;5071432;28;20056;-54
2022/03/18 09:12:46;;;;;;;48.35;15.57;;;14.00;80.40;;;;;;5070608;28;20056;-54
2022/03/18 09:15:22;;;;;;;21.60;13.48;;;14.00;82.10;;;;;;5070677;28;20024;-55
2022/03/18 09:17:52;;;;;;;28.83;14.88;;;14.20;80.50;;;;;;5045085;28;20113;-54
2022/03/18 09:20:18;;;;;;;22.60;13.82;;;14.40;72.40;;;;;;5070734;28;20039;-54
2022/03/18 09:22:44;;;;;;;25.00;13.15;;;14.80;67.20;;;;;;5076020;28;20417;-54
2022/03/18 09:25:10;;;;;;;20.88;13.02;;;15.10;55.80;;;;;;5055417;28;20040;-55
2022/03/18 09:27:37;;;;;;;20.52;12.48;;;15.30;53.00;;;;;;5070813;28;20394;-54
2022/03/18 09:30:03;;;;;;;26.23;12.80;;;15.30;58.30;;;;;;5075489;28;20064;-54
2022/03/18 09:32:30;;;;;;;27.23;14.57;;;15.30;54.10;;;;;;5075416;28;20028;-55
2022/03/18 09:34:57;;;;;;;23.55;13.43;;;15.50;56.00;;;;;;5074885;28;20040;-54
2022/03/18 09:37:23;;;;;;;25.55;13.77;;;15.40;58.10;;;;;;5054752;28;20033;-54
2022/03/18 09:39:49;;;;;;;27.10;12.15;;;15.30;54.30;;;;;;5054876;28;20540;-54
2022/03/18 09:42:15;;;;;;;30.50;13.73;;;15.40;55.50;;;;;;5054982;28;20096;-54
2022/03/18 09:44:41;;;;;;;29.75;14.27;;;15.40;51.20;;;;;;5055178;28;20053;-54
2022/03/18 09:47:08;;;;;;;27.63;15.10;;;15.40;53.70;;;;;;5068996;28;20032;-54
2022/03/18 09:49:35;;;;;;;24.40;12.52;;;14.80;48.30;;;;;;5069157;28;20040;-53
2022/03/18 09:52:04;;;;;;;22.10;12.27;;;15.10;50.30;;;;;;5073803;28;20569;-53
2022/03/18 09:54:32;;;;;;;30.70;11.88;;;15.30;46.30;;;;;;5054316;28;20359;-53
2022/03/18 09:57:00;;;;;;;23.17;13.35;;;15.60;42.90;;;;;;5068582;28;20024;-53
2022/03/18 09:59:27;;;;;;;23.50;12.65;;;15.60;40.60;;;;;;5074956;28;20021;-53
2022/03/18 10:02:26;;;;;;;19.98;12.75;;;15.50;41.80;;;;;;5076314;28;20028;-53
2022/03/18 10:04:54;;;;;;;18.35;11.40;;;15.60;39.20;;;;;;5060190;28;20153;-53
2022/03/18 10:07:21;;;;;;;19.35;11.32;;;15.80;41.00;;;;;;5075005;28;20037;-53
2022/03/18 10:09:48;;;;;;;23.95;12.43;;;15.80;37.70;;;;;;5075562;28;20047;-53
2022/03/18 10:12:34;;;;;;;33.05;13.27;;;15.90;40.60;;;;;;5075467;28;20020;-53
2022/03/18 10:15:16;;;;;;;20.13;10.95;;;15.50;39.80;;;;;;5075447;28;20036;-53
2022/03/18 10:17:51;;;;;;;22.90;13.15;;;15.90;39.60;;;;;;5075164;28;20108;-53
2022/03/18 10:20:28;;;;;;;17.67;11.52;;;16.00;40.20;;;;;;5075318;28;20036;-53
2022/03/18 10:22:56;;;;;;;23.08;12.20;;;15.30;38.60;;;;;;5055221;28;20037;-54
2022/03/18 10:25:40;;;;;;;19.05;11.52;;;15.60;39.80;;;;;;5074862;28;20024;-54
2022/03/18 10:28:08;;;;;;;25.73;12.52;;;15.60;38.00;;;;;;5075373;28;20458;-54
2022/03/18 10:30:35;;;;;;;26.55;13.00;;;15.80;39.00;;;;;;5075151;28;20485;-54
2022/03/18 10:33:02;;;;;;;33.85;12.77;;;16.20;37.20;;;;;;5074204;28;20482;-54
2022/03/18 10:38:35;;;;;;;23.70;12.52;;;16.00;36.80;;;;;;5075093;28;20373;-54
2022/03/18 10:41:23;;;;;;;23.03;12.37;;;15.70;33.90;;;;;;5074557;28;20059;-54
2022/03/18 10:43:55;;;;;;;17.23;11.40;;;15.80;35.20;;;;;;5074141;28;20623;-54
2022/03/18 10:46:22;;;;;;;23.48;12.13;;;16.00;34.80;;;;;;5073538;28;20028;-54
2022/03/18 10:49:07;;;;;;;26.08;12.82;;;15.60;35.30;;;;;;5074250;28;20040;-54
2022/03/18 10:51:37;;;;;;;24.27;12.50;;;16.00;35.60;;;;;;5073820;28;20044;-54
2022/03/18 10:54:04;;;;;;;26.50;12.85;;;15.70;34.30;;;;;;5074592;28;20035;-54
2022/03/18 10:56:54;;;;;;;28.42;13.57;;;15.80;34.70;;;;;;5074151;28;20056;-54
2022/03/18 10:59:22;;;;;;;18.02;11.57;;;16.20;36.40;;;;;;5074868;28;20024;-54
2022/03/18 11:01:50;;;;;;;23.30;13.88;;;16.50;35.10;;;;;;5074299;28;20029;-55
2022/03/18 11:04:17;;;;;;;26.25;13.93;;;16.70;35.40;;;;;;5066806;28;20153;-55
2022/03/18 11:07:29;;;;;;;26.35;11.90;;;16.40;35.20;;;;;;5070007;28;20039;-55
2022/03/18 11:11:06;;;;;;;30.40;13.35;;;16.70;35.10;;;;;;5073060;28;20029;-55
2022/03/18 11:12:22;;;;;;;33.03;14.85;;;16.30;34.20;;;;;;5074788;28;20076;-55
2022/03/18 11:14:53;;;;;;;41.38;15.38;;;16.70;34.30;;;;;;5074152;28;20028;-54
2022/03/18 11:17:21;;;;;;;27.20;13.38;;;16.80;37.60;;;;;;5088460;28;20088;-55
2022/03/18 11:19:47;;;;;;;36.03;14.05;;;16.70;38.10;;;;;;5072576;28;20550;-54
2022/03/18 11:22:17;;;;;;;32.78;14.50;;;16.40;38.80;;;;;;5073883;28;20054;-54
2022/03/18 11:24:45;;;;;;;27.48;14.40;;;16.20;39.60;;;;;;5074316;28;20024;-54
2022/03/18 11:27:12;;;;;;;19.38;12.60;;;15.90;39.50;;;;;;5073961;28;20111;-54
2022/03/18 11:29:40;;;;;;;21.83;12.68;;;15.50;41.90;;;;;;5073990;28;20028;-54
2022/03/18 11:32:20;;;;;;;26.38;14.73;;;15.00;41.90;;;;;;5051715;28;20033;-54
2022/03/18 11:34:55;;;;;;;40.63;15.43;;;15.10;44.50;;;;;;5052119;28;20094;-54
2022/03/18 11:37:21;;;;;;;45.70;16.02;;;15.40;43.70;;;;;;5056994;28;20028;-54
2022/03/18 11:39:53;;;;;;;24.83;12.50;;;15.60;44.60;;;;;;5061430;28;20107;-54
2022/03/18 11:42:20;;;;;;;26.85;12.43;;;15.70;41.30;;;;;;5053792;28;20154;-54
2022/03/18 11:44:56;;;;;;;44.03;13.50;;;15.90;40.80;;;;;;5061756;28;20018;-54
2022/03/18 11:47:30;;;;;;;23.20;13.00;;;15.70;40.20;;;;;;5052912;28;20112;-54
2022/03/18 11:49:58;;;;;;;18.77;12.23;;;15.70;42.00;;;;;;5056703;28;20025;-54
2022/03/18 11:52:24;;;;;;;22.58;13.10;;;15.50;41.50;;;;;;5053223;28;20385;-54
2022/03/18 11:55:10;;;;;;;30.83;14.32;;;15.80;44.20;;;;;;5053427;28;20053;-54
2022/03/18 11:57:45;;;;;;;23.90;13.75;;;15.70;43.00;;;;;;5053832;28;20033;-54
2022/03/18 12:00:32;;;;;;;19.92;12.88;;;16.00;42.30;;;;;;5066412;28;20021;-54
2022/03/18 12:03:02;;;;;;;27.55;13.10;;;15.60;42.10;;;;;;5062329;28;20028;-54
2022/03/18 12:05:32;;;;;;;26.42;13.35;;;15.40;41.20;;;;;;5053716;28;20037;-54
2022/03/18 12:07:59;;;;;;;25.30;13.23;;;15.50;38.20;;;;;;5053421;28;20103;-54
2022/03/18 12:10:36;;;;;;;17.23;10.00;;;15.60;38.10;;;;;;5051871;28;20033;-54
2022/03/18 12:13:03;;;;;;;20.38;11.57;;;15.40;33.90;;;;;;5050042;28;20033;-54
2022/03/18 12:15:30;;;;;;;33.28;13.68;;;15.00;33.40;;;;;;5052115;28;20040;-53
2022/03/18 12:17:58;;;;;;;31.23;13.27;;;15.00;34.50;;;;;;5060632;28;20024;-54
2022/03/18 12:20:28;;;;;;;30.35;12.07;;;14.90;36.70;;;;;;5054963;28;20467;-53
2022/03/18 12:22:55;;;;;;;24.17;12.18;;;15.00;36.10;;;;;;5057068;28;20050;-54
2022/03/18 12:25:22;;;;;;;28.23;12.77;;;14.90;37.10;;;;;;5057630;28;20035;-53
2022/03/18 12:27:49;;;;;;;51.42;13.82;;;14.80;37.40;;;;;;5057351;28;20036;-53
2022/03/18 12:30:20;;;;;;;37.95;13.45;;;14.80;37.90;;;;;;5057613;28;20029;-53
2022/03/18 12:32:58;;;;;;;23.08;12.50;;;14.70;38.40;;;;;;5059815;28;20552;-53
2022/03/18 12:35:34;;;;;;;20.60;12.57;;;14.50;39.00;;;;;;5077005;28;20038;-54
2022/03/18 12:38:08;;;;;;;30.88;13.18;;;14.50;38.50;;;;;;5077331;28;20052;-54
2022/03/18 12:40:37;;;;;;;20.60;12.50;;;14.10;40.80;;;;;;5062124;28;20028;-54
2022/03/18 12:43:03;;;;;;;29.80;13.90;;;14.10;39.40;;;;;;5070099;28;20037;-54
2022/03/18 12:45:32;;;;;;;20.58;11.77;;;13.90;41.00;;;;;;5073448;28;20032;-54
2022/03/18 12:47:59;;;;;;;19.90;12.75;;;14.10;41.70;;;;;;5076532;28;20036;-54